sensor_id;sensor_type;location;lat;lon;timestamp;P1;durP1;ratioP1;P2;durP2;ratioP2
51636;SDS011;37713;53.254;6.460;2023-07-29T00:01:42;32.08;;;7.95;;
51636;SDS011;37713;53.254;6.460;2023-07-29T00:04:08;19.58;;;7.63;;
51636;SDS011;37713;53.254;6.460;2023-07-29T00:06:34;35.45;;;8.60;;
51636;SDS011;37713;53.254;6.460;2023-07-29T00:09:01;15.55;;;7.93;;
51636;SDS011;37713;53.254;6.460;2023-07-29T00:11:27;24.35;;;8.27;;
51636;SDS011;37713;53.254;6.460;2023-07-29T00:13:53;24.45;;;8.52;;
51636;SDS011;37713;53.254;6.460;2023-07-29T00:16:19;24.20;;;8.35;;
51636;SDS011;37713;53.254;6.460;2023-07-29T00:18:47;18.52;;;7.53;;
51636;SDS011;37713;53.254;6.460;2023-07-29T00:21:13;38.60;;;8.65;;
51636;SDS011;37713;53.254;6.460;2023-07-29T00:23:39;41.88;;;9.27;;
51636;SDS011;37713;53.254;6.460;2023-07-29T00:26:05;30.83;;;8.30;;
51636;SDS011;37713;53.254;6.460;2023-07-29T00:28:31;19.75;;;7.57;;
51636;SDS011;37713;53.254;6.460;2023-07-29T00:30:57;18.63;;;7.88;;
51636;SDS011;37713;53.254;6.460;2023-07-29T00:33:22;39.88;;;9.40;;
51636;SDS011;37713;53.254;6.460;2023-07-29T00:35:48;16.75;;;8.00;;
51636;SDS011;37713;53.254;6.460;2023-07-29T00:38:14;10.75;;;7.43;;
51636;SDS011;37713;53.254;6.460;2023-07-29T00:40:40;21.55;;;7.82;;
51636;SDS011;37713;53.254;6.460;2023-07-29T00:43:06;24.13;;;9.00;;
51636;SDS011;37713;53.254;6.460;2023-07-29T00:45:32;20.40;;;7.38;;
51636;SDS011;37713;53.254;6.460;2023-07-29T00:47:59;14.60;;;7.38;;
51636;SDS011;37713;53.254;6.460;2023-07-29T00:50:26;18.90;;;8.85;;
51636;SDS011;37713;53.254;6.460;2023-07-29T00:52:54;16.88;;;7.80;;
51636;SDS011;37713;53.254;6.460;2023-07-29T00:55:21;10.75;;;8.50;;
51636;SDS011;37713;53.254;6.460;2023-07-29T00:57:47;11.75;;;8.23;;
51636;SDS011;37713;53.254;6.460;2023-07-29T01:00:15;14.00;;;7.68;;
51636;SDS011;37713;53.254;6.460;2023-07-29T01:02:42;14.55;;;8.43;;
51636;SDS011;37713;53.254;6.460;2023-07-29T01:05:08;14.38;;;7.90;;
51636;SDS011;37713;53.254;6.460;2023-07-29T01:12:48;13.65;;;8.52;;
51636;SDS011;37713;53.254;6.460;2023-07-29T01:15:46;18.25;;;8.20;;
51636;SDS011;37713;53.254;6.460;2023-07-29T01:18:23;22.00;;;8.55;;
51636;SDS011;37713;53.254;6.460;2023-07-29T01:20:57;25.67;;;8.55;;
51636;SDS011;37713;53.254;6.460;2023-07-29T01:23:31;16.10;;;8.68;;
51636;SDS011;37713;53.254;6.460;2023-07-29T01:25:58;35.72;;;9.35;;
51636;SDS011;37713;53.254;6.460;2023-07-29T01:28:24;30.15;;;8.90;;
51636;SDS011;37713;53.254;6.460;2023-07-29T01:30:51;30.83;;;9.38;;
51636;SDS011;37713;53.254;6.460;2023-07-29T01:33:26;16.70;;;8.75;;
51636;SDS011;37713;53.254;6.460;2023-07-29T01:35:57;16.30;;;8.88;;
51636;SDS011;37713;53.254;6.460;2023-07-29T01:38:33;34.03;;;9.75;;
51636;SDS011;37713;53.254;6.460;2023-07-29T01:41:02;18.90;;;8.93;;
51636;SDS011;37713;53.254;6.460;2023-07-29T01:43:29;17.52;;;9.00;;
51636;SDS011;37713;53.254;6.460;2023-07-29T01:45:55;25.55;;;8.75;;
51636;SDS011;37713;53.254;6.460;2023-07-29T01:48:21;21.45;;;9.52;;
51636;SDS011;37713;53.254;6.460;2023-07-29T01:50:47;14.38;;;9.05;;
51636;SDS011;37713;53.254;6.460;2023-07-29T01:53:13;11.77;;;8.75;;
51636;SDS011;37713;53.254;6.460;2023-07-29T01:55:39;16.35;;;9.30;;
51636;SDS011;37713;53.254;6.460;2023-07-29T01:58:05;18.23;;;9.07;;
51636;SDS011;37713;53.254;6.460;2023-07-29T02:00:31;13.05;;;9.25;;
51636;SDS011;37713;53.254;6.460;2023-07-29T02:02:57;16.80;;;9.68;;
51636;SDS011;37713;53.254;6.460;2023-07-29T02:05:23;22.73;;;10.48;;
51636;SDS011;37713;53.254;6.460;2023-07-29T02:07:48;18.13;;;9.13;;
51636;SDS011;37713;53.254;6.460;2023-07-29T02:10:15;22.42;;;10.07;;
51636;SDS011;37713;53.254;6.460;2023-07-29T02:12:40;14.88;;;8.98;;
51636;SDS011;37713;53.254;6.460;2023-07-29T02:15:06;36.33;;;9.82;;
51636;SDS011;37713;53.254;6.460;2023-07-29T02:17:32;21.17;;;9.57;;
51636;SDS011;37713;53.254;6.460;2023-07-29T02:19:58;14.38;;;9.75;;
51636;SDS011;37713;53.254;6.460;2023-07-29T02:22:24;19.63;;;9.32;;
51636;SDS011;37713;53.254;6.460;2023-07-29T02:24:50;12.70;;;9.07;;
51636;SDS011;37713;53.254;6.460;2023-07-29T02:27:16;22.42;;;10.07;;
51636;SDS011;37713;53.254;6.460;2023-07-29T02:29:42;15.93;;;9.98;;
51636;SDS011;37713;53.254;6.460;2023-07-29T02:32:07;16.08;;;9.32;;
51636;SDS011;37713;53.254;6.460;2023-07-29T02:34:34;15.38;;;9.38;;
51636;SDS011;37713;53.254;6.460;2023-07-29T02:36:59;14.20;;;9.77;;
51636;SDS011;37713;53.254;6.460;2023-07-29T02:39:25;13.75;;;10.00;;
51636;SDS011;37713;53.254;6.460;2023-07-29T02:41:51;14.43;;;9.15;;
51636;SDS011;37713;53.254;6.460;2023-07-29T02:44:17;26.35;;;10.02;;
51636;SDS011;37713;53.254;6.460;2023-07-29T02:46:44;15.70;;;9.40;;
51636;SDS011;37713;53.254;6.460;2023-07-29T02:49:10;17.95;;;9.95;;
51636;SDS011;37713;53.254;6.460;2023-07-29T02:51:36;44.67;;;11.75;;
51636;SDS011;37713;53.254;6.460;2023-07-29T02:54:02;22.05;;;9.80;;
51636;SDS011;37713;53.254;6.460;2023-07-29T02:56:27;19.77;;;9.95;;
51636;SDS011;37713;53.254;6.460;2023-07-29T02:58:53;18.00;;;9.35;;
51636;SDS011;37713;53.254;6.460;2023-07-29T03:01:19;24.25;;;9.43;;
51636;SDS011;37713;53.254;6.460;2023-07-29T03:03:45;13.90;;;9.38;;
51636;SDS011;37713;53.254;6.460;2023-07-29T03:06:13;29.95;;;11.05;;
51636;SDS011;37713;53.254;6.460;2023-07-29T03:08:39;22.13;;;9.30;;
51636;SDS011;37713;53.254;6.460;2023-07-29T03:11:06;14.95;;;8.88;;
51636;SDS011;37713;53.254;6.460;2023-07-29T03:13:33;23.88;;;10.23;;
51636;SDS011;37713;53.254;6.460;2023-07-29T03:16:06;33.92;;;10.45;;
51636;SDS011;37713;53.254;6.460;2023-07-29T03:18:35;36.28;;;9.88;;
51636;SDS011;37713;53.254;6.460;2023-07-29T03:21:01;25.70;;;10.05;;
51636;SDS011;37713;53.254;6.460;2023-07-29T03:23:27;32.10;;;10.07;;
51636;SDS011;37713;53.254;6.460;2023-07-29T03:25:54;30.00;;;9.93;;
51636;SDS011;37713;53.254;6.460;2023-07-29T03:28:26;47.10;;;11.30;;
51636;SDS011;37713;53.254;6.460;2023-07-29T03:30:54;24.50;;;10.65;;
51636;SDS011;37713;53.254;6.460;2023-07-29T03:33:20;15.80;;;9.10;;
51636;SDS011;37713;53.254;6.460;2023-07-29T03:35:46;20.08;;;9.10;;
51636;SDS011;37713;53.254;6.460;2023-07-29T03:38:12;15.25;;;9.60;;
51636;SDS011;37713;53.254;6.460;2023-07-29T03:40:39;24.05;;;10.07;;
51636;SDS011;37713;53.254;6.460;2023-07-29T03:43:05;25.23;;;9.68;;
51636;SDS011;37713;53.254;6.460;2023-07-29T03:45:31;32.47;;;10.00;;
51636;SDS011;37713;53.254;6.460;2023-07-29T03:47:57;33.63;;;10.25;;
51636;SDS011;37713;53.254;6.460;2023-07-29T03:50:23;29.75;;;8.95;;
51636;SDS011;37713;53.254;6.460;2023-07-29T03:52:49;25.40;;;8.68;;
51636;SDS011;37713;53.254;6.460;2023-07-29T03:55:15;16.70;;;9.48;;
51636;SDS011;37713;53.254;6.460;2023-07-29T03:57:41;30.52;;;9.50;;
51636;SDS011;37713;53.254;6.460;2023-07-29T04:00:07;23.75;;;8.73;;
51636;SDS011;37713;53.254;6.460;2023-07-29T04:02:36;12.45;;;8.27;;
51636;SDS011;37713;53.254;6.460;2023-07-29T04:05:03;15.30;;;8.23;;
51636;SDS011;37713;53.254;6.460;2023-07-29T04:07:29;16.98;;;8.00;;
51636;SDS011;37713;53.254;6.460;2023-07-29T04:09:56;18.35;;;8.35;;
51636;SDS011;37713;53.254;6.460;2023-07-29T04:12:22;13.18;;;8.30;;
51636;SDS011;37713;53.254;6.460;2023-07-29T04:14:49;31.10;;;8.60;;
51636;SDS011;37713;53.254;6.460;2023-07-29T04:17:16;25.83;;;7.95;;
51636;SDS011;37713;53.254;6.460;2023-07-29T04:19:41;15.70;;;7.90;;
51636;SDS011;37713;53.254;6.460;2023-07-29T04:22:07;17.88;;;7.75;;
51636;SDS011;37713;53.254;6.460;2023-07-29T04:24:33;18.98;;;8.05;;
51636;SDS011;37713;53.254;6.460;2023-07-29T04:26:58;19.95;;;8.10;;
51636;SDS011;37713;53.254;6.460;2023-07-29T04:29:25;16.60;;;7.75;;
51636;SDS011;37713;53.254;6.460;2023-07-29T04:31:50;16.42;;;7.55;;
51636;SDS011;37713;53.254;6.460;2023-07-29T04:34:17;13.80;;;6.72;;
51636;SDS011;37713;53.254;6.460;2023-07-29T04:36:44;19.75;;;7.45;;
51636;SDS011;37713;53.254;6.460;2023-07-29T04:39:10;18.40;;;7.68;;
51636;SDS011;37713;53.254;6.460;2023-07-29T04:41:36;25.13;;;7.45;;
51636;SDS011;37713;53.254;6.460;2023-07-29T04:44:02;18.42;;;7.40;;
51636;SDS011;37713;53.254;6.460;2023-07-29T04:46:28;12.70;;;6.88;;
51636;SDS011;37713;53.254;6.460;2023-07-29T04:48:54;25.45;;;7.68;;
51636;SDS011;37713;53.254;6.460;2023-07-29T04:51:20;14.65;;;6.90;;
51636;SDS011;37713;53.254;6.460;2023-07-29T04:53:46;12.43;;;7.35;;
51636;SDS011;37713;53.254;6.460;2023-07-29T04:56:11;11.02;;;6.80;;
51636;SDS011;37713;53.254;6.460;2023-07-29T04:58:37;16.02;;;6.82;;
51636;SDS011;37713;53.254;6.460;2023-07-29T05:01:03;9.27;;;6.32;;
51636;SDS011;37713;53.254;6.460;2023-07-29T05:03:29;16.58;;;6.80;;
51636;SDS011;37713;53.254;6.460;2023-07-29T05:05:56;13.45;;;6.57;;
51636;SDS011;37713;53.254;6.460;2023-07-29T05:08:23;15.02;;;6.65;;
51636;SDS011;37713;53.254;6.460;2023-07-29T05:10:49;13.40;;;6.10;;
51636;SDS011;37713;53.254;6.460;2023-07-29T05:13:16;15.48;;;6.60;;
51636;SDS011;37713;53.254;6.460;2023-07-29T05:15:42;28.85;;;7.38;;
51636;SDS011;37713;53.254;6.460;2023-07-29T05:18:07;12.85;;;5.93;;
51636;SDS011;37713;53.254;6.460;2023-07-29T05:20:33;10.38;;;5.78;;
51636;SDS011;37713;53.254;6.460;2023-07-29T05:22:59;23.02;;;8.48;;
51636;SDS011;37713;53.254;6.460;2023-07-29T05:25:25;11.85;;;6.63;;
51636;SDS011;37713;53.254;6.460;2023-07-29T05:27:51;14.10;;;5.97;;
51636;SDS011;37713;53.254;6.460;2023-07-29T05:30:17;16.95;;;5.80;;
51636;SDS011;37713;53.254;6.460;2023-07-29T05:32:43;22.90;;;5.78;;
51636;SDS011;37713;53.254;6.460;2023-07-29T05:35:09;8.32;;;4.60;;
51636;SDS011;37713;53.254;6.460;2023-07-29T05:37:37;9.10;;;5.05;;
51636;SDS011;37713;53.254;6.460;2023-07-29T05:40:05;11.10;;;5.20;;
51636;SDS011;37713;53.254;6.460;2023-07-29T05:42:33;8.85;;;4.65;;
51636;SDS011;37713;53.254;6.460;2023-07-29T05:44:59;12.07;;;5.50;;
51636;SDS011;37713;53.254;6.460;2023-07-29T05:47:25;13.02;;;5.28;;
51636;SDS011;37713;53.254;6.460;2023-07-29T05:49:51;10.75;;;4.68;;
51636;SDS011;37713;53.254;6.460;2023-07-29T05:52:17;15.60;;;5.22;;
51636;SDS011;37713;53.254;6.460;2023-07-29T05:54:43;14.20;;;5.30;;
51636;SDS011;37713;53.254;6.460;2023-07-29T05:57:10;9.90;;;5.22;;
51636;SDS011;37713;53.254;6.460;2023-07-29T05:59:37;13.35;;;4.90;;
51636;SDS011;37713;53.254;6.460;2023-07-29T06:02:03;10.43;;;4.45;;
51636;SDS011;37713;53.254;6.460;2023-07-29T06:04:29;15.00;;;5.30;;
51636;SDS011;37713;53.254;6.460;2023-07-29T06:06:55;33.92;;;6.28;;
51636;SDS011;37713;53.254;6.460;2023-07-29T06:09:22;13.15;;;4.82;;
51636;SDS011;37713;53.254;6.460;2023-07-29T06:11:48;9.23;;;4.25;;
51636;SDS011;37713;53.254;6.460;2023-07-29T06:14:13;11.00;;;4.30;;
51636;SDS011;37713;53.254;6.460;2023-07-29T06:16:39;9.85;;;4.63;;
51636;SDS011;37713;53.254;6.460;2023-07-29T06:19:05;15.45;;;5.07;;
51636;SDS011;37713;53.254;6.460;2023-07-29T06:21:33;36.13;;;21.77;;
51636;SDS011;37713;53.254;6.460;2023-07-29T06:23:59;17.85;;;5.68;;
51636;SDS011;37713;53.254;6.460;2023-07-29T06:26:25;14.95;;;6.10;;
51636;SDS011;37713;53.254;6.460;2023-07-29T06:28:51;10.80;;;4.38;;
51636;SDS011;37713;53.254;6.460;2023-07-29T06:31:17;10.93;;;3.95;;
51636;SDS011;37713;53.254;6.460;2023-07-29T06:33:43;13.85;;;4.40;;
51636;SDS011;37713;53.254;6.460;2023-07-29T06:36:09;9.52;;;4.07;;
51636;SDS011;37713;53.254;6.460;2023-07-29T06:38:34;10.10;;;3.88;;
51636;SDS011;37713;53.254;6.460;2023-07-29T06:41:00;9.25;;;4.10;;
51636;SDS011;37713;53.254;6.460;2023-07-29T06:43:26;13.35;;;4.30;;
51636;SDS011;37713;53.254;6.460;2023-07-29T06:45:51;12.43;;;4.60;;
51636;SDS011;37713;53.254;6.460;2023-07-29T06:48:17;9.77;;;3.80;;
51636;SDS011;37713;53.254;6.460;2023-07-29T06:50:45;8.93;;;4.00;;
51636;SDS011;37713;53.254;6.460;2023-07-29T06:53:10;15.15;;;4.20;;
51636;SDS011;37713;53.254;6.460;2023-07-29T06:55:37;14.40;;;4.57;;
51636;SDS011;37713;53.254;6.460;2023-07-29T06:58:02;14.52;;;4.30;;
51636;SDS011;37713;53.254;6.460;2023-07-29T07:00:28;11.48;;;4.25;;
51636;SDS011;37713;53.254;6.460;2023-07-29T07:02:54;14.30;;;4.28;;
51636;SDS011;37713;53.254;6.460;2023-07-29T07:05:20;9.63;;;4.25;;
51636;SDS011;37713;53.254;6.460;2023-07-29T07:07:46;16.05;;;8.27;;
51636;SDS011;37713;53.254;6.460;2023-07-29T07:10:11;13.10;;;4.15;;
51636;SDS011;37713;53.254;6.460;2023-07-29T07:12:37;9.75;;;4.15;;
51636;SDS011;37713;53.254;6.460;2023-07-29T07:15:03;16.10;;;4.20;;
51636;SDS011;37713;53.254;6.460;2023-07-29T07:17:29;12.32;;;4.47;;
51636;SDS011;37713;53.254;6.460;2023-07-29T07:19:55;15.50;;;4.28;;
51636;SDS011;37713;53.254;6.460;2023-07-29T07:22:21;10.88;;;4.68;;
51636;SDS011;37713;53.254;6.460;2023-07-29T07:24:47;9.93;;;4.20;;
51636;SDS011;37713;53.254;6.460;2023-07-29T07:27:13;12.23;;;4.70;;
51636;SDS011;37713;53.254;6.460;2023-07-29T07:29:39;8.10;;;4.03;;
51636;SDS011;37713;53.254;6.460;2023-07-29T07:32:05;12.02;;;4.13;;
51636;SDS011;37713;53.254;6.460;2023-07-29T07:34:31;11.18;;;4.13;;
51636;SDS011;37713;53.254;6.460;2023-07-29T07:36:58;9.57;;;3.65;;
51636;SDS011;37713;53.254;6.460;2023-07-29T07:39:25;15.00;;;4.20;;
51636;SDS011;37713;53.254;6.460;2023-07-29T07:41:51;9.88;;;3.67;;
51636;SDS011;37713;53.254;6.460;2023-07-29T07:44:17;10.02;;;3.58;;
51636;SDS011;37713;53.254;6.460;2023-07-29T07:46:44;9.80;;;3.67;;
51636;SDS011;37713;53.254;6.460;2023-07-29T07:49:10;11.15;;;4.25;;
51636;SDS011;37713;53.254;6.460;2023-07-29T07:51:38;9.85;;;3.80;;
51636;SDS011;37713;53.254;6.460;2023-07-29T07:54:04;9.10;;;3.47;;
51636;SDS011;37713;53.254;6.460;2023-07-29T07:56:30;7.82;;;3.20;;
51636;SDS011;37713;53.254;6.460;2023-07-29T07:58:55;11.35;;;3.70;;
51636;SDS011;37713;53.254;6.460;2023-07-29T08:01:21;12.10;;;3.83;;
51636;SDS011;37713;53.254;6.460;2023-07-29T08:03:47;13.63;;;3.70;;
51636;SDS011;37713;53.254;6.460;2023-07-29T08:06:13;13.05;;;3.80;;
51636;SDS011;37713;53.254;6.460;2023-07-29T08:08:39;9.55;;;3.67;;
51636;SDS011;37713;53.254;6.460;2023-07-29T08:11:04;8.40;;;3.22;;
51636;SDS011;37713;53.254;6.460;2023-07-29T08:13:30;9.38;;;3.80;;
51636;SDS011;37713;53.254;6.460;2023-07-29T08:15:56;9.00;;;3.35;;
51636;SDS011;37713;53.254;6.460;2023-07-29T08:18:22;8.57;;;3.28;;
51636;SDS011;37713;53.254;6.460;2023-07-29T08:20:57;7.63;;;3.17;;
51636;SDS011;37713;53.254;6.460;2023-07-29T08:23:28;10.13;;;2.85;;
51636;SDS011;37713;53.254;6.460;2023-07-29T08:25:59;14.90;;;3.47;;
51636;SDS011;37713;53.254;6.460;2023-07-29T08:28:36;5.57;;;2.70;;
51636;SDS011;37713;53.254;6.460;2023-07-29T08:31:03;8.43;;;2.92;;
51636;SDS011;37713;53.254;6.460;2023-07-29T08:33:30;9.02;;;3.35;;
51636;SDS011;37713;53.254;6.460;2023-07-29T08:35:56;9.45;;;3.25;;
51636;SDS011;37713;53.254;6.460;2023-07-29T08:38:22;10.65;;;5.45;;
51636;SDS011;37713;53.254;6.460;2023-07-29T08:43:52;8.88;;;2.85;;
51636;SDS011;37713;53.254;6.460;2023-07-29T08:46:25;10.85;;;2.50;;
51636;SDS011;37713;53.254;6.460;2023-07-29T08:48:51;10.43;;;2.55;;
51636;SDS011;37713;53.254;6.460;2023-07-29T08:51:17;9.05;;;2.60;;
51636;SDS011;37713;53.254;6.460;2023-07-29T08:53:46;8.25;;;2.25;;
51636;SDS011;37713;53.254;6.460;2023-07-29T08:56:13;13.20;;;2.42;;
51636;SDS011;37713;53.254;6.460;2023-07-29T08:58:39;6.63;;;2.60;;
51636;SDS011;37713;53.254;6.460;2023-07-29T09:01:06;15.15;;;4.95;;
51636;SDS011;37713;53.254;6.460;2023-07-29T09:03:32;18.40;;;7.35;;
51636;SDS011;37713;53.254;6.460;2023-07-29T09:05:57;6.70;;;2.35;;
51636;SDS011;37713;53.254;6.460;2023-07-29T09:08:25;9.52;;;2.03;;
51636;SDS011;37713;53.254;6.460;2023-07-29T09:10:52;7.32;;;2.30;;
51636;SDS011;37713;53.254;6.460;2023-07-29T09:13:19;6.43;;;2.20;;
51636;SDS011;37713;53.254;6.460;2023-07-29T09:15:45;9.20;;;2.30;;
51636;SDS011;37713;53.254;6.460;2023-07-29T09:18:16;12.45;;;2.47;;
51636;SDS011;37713;53.254;6.460;2023-07-29T09:20:43;8.20;;;2.17;;
51636;SDS011;37713;53.254;6.460;2023-07-29T09:23:12;9.30;;;2.00;;
51636;SDS011;37713;53.254;6.460;2023-07-29T09:25:39;9.35;;;2.20;;
51636;SDS011;37713;53.254;6.460;2023-07-29T09:28:11;9.43;;;2.13;;
51636;SDS011;37713;53.254;6.460;2023-07-29T09:30:42;8.73;;;2.10;;
51636;SDS011;37713;53.254;6.460;2023-07-29T09:33:10;7.80;;;2.20;;
51636;SDS011;37713;53.254;6.460;2023-07-29T09:35:36;6.45;;;1.80;;
51636;SDS011;37713;53.254;6.460;2023-07-29T09:38:03;9.30;;;1.92;;
51636;SDS011;37713;53.254;6.460;2023-07-29T09:43:03;6.93;;;1.92;;
51636;SDS011;37713;53.254;6.460;2023-07-29T09:45:32;6.22;;;1.83;;
51636;SDS011;37713;53.254;6.460;2023-07-29T09:47:58;5.47;;;1.67;;
51636;SDS011;37713;53.254;6.460;2023-07-29T09:50:25;7.55;;;1.70;;
51636;SDS011;37713;53.254;6.460;2023-07-29T09:52:52;7.35;;;1.70;;
51636;SDS011;37713;53.254;6.460;2023-07-29T09:55:22;8.27;;;2.13;;
51636;SDS011;37713;53.254;6.460;2023-07-29T09:57:59;7.10;;;1.80;;
51636;SDS011;37713;53.254;6.460;2023-07-29T10:00:30;7.00;;;1.83;;
51636;SDS011;37713;53.254;6.460;2023-07-29T10:02:57;6.05;;;1.35;;
51636;SDS011;37713;53.254;6.460;2023-07-29T10:05:27;4.95;;;1.92;;
51636;SDS011;37713;53.254;6.460;2023-07-29T10:07:54;7.75;;;2.00;;
51636;SDS011;37713;53.254;6.460;2023-07-29T10:10:21;6.80;;;1.90;;
51636;SDS011;37713;53.254;6.460;2023-07-29T10:12:47;7.75;;;1.83;;
51636;SDS011;37713;53.254;6.460;2023-07-29T10:15:15;7.53;;;1.85;;
51636;SDS011;37713;53.254;6.460;2023-07-29T10:17:41;6.05;;;1.70;;
51636;SDS011;37713;53.254;6.460;2023-07-29T10:20:08;6.72;;;1.73;;
51636;SDS011;37713;53.254;6.460;2023-07-29T10:22:40;5.72;;;1.70;;
51636;SDS011;37713;53.254;6.460;2023-07-29T10:25:07;6.30;;;1.63;;
51636;SDS011;37713;53.254;6.460;2023-07-29T10:30:21;4.38;;;1.38;;
51636;SDS011;37713;53.254;6.460;2023-07-29T10:32:48;6.00;;;1.50;;
51636;SDS011;37713;53.254;6.460;2023-07-29T10:35:15;5.00;;;2.08;;
51636;SDS011;37713;53.254;6.460;2023-07-29T10:37:42;5.05;;;1.80;;
51636;SDS011;37713;53.254;6.460;2023-07-29T10:40:10;6.95;;;1.90;;
51636;SDS011;37713;53.254;6.460;2023-07-29T10:42:37;6.15;;;1.80;;
51636;SDS011;37713;53.254;6.460;2023-07-29T10:45:19;7.38;;;1.95;;
51636;SDS011;37713;53.254;6.460;2023-07-29T10:47:46;5.72;;;1.65;;
51636;SDS011;37713;53.254;6.460;2023-07-29T10:50:19;8.20;;;1.98;;
51636;SDS011;37713;53.254;6.460;2023-07-29T10:52:50;7.40;;;2.00;;
51636;SDS011;37713;53.254;6.460;2023-07-29T10:55:28;13.30;;;5.78;;
51636;SDS011;37713;53.254;6.460;2023-07-29T10:58:18;7.53;;;2.00;;
51636;SDS011;37713;53.254;6.460;2023-07-29T11:00:46;9.20;;;2.28;;
51636;SDS011;37713;53.254;6.460;2023-07-29T11:03:13;8.82;;;2.10;;
51636;SDS011;37713;53.254;6.460;2023-07-29T11:08:22;13.55;;;2.55;;
51636;SDS011;37713;53.254;6.460;2023-07-29T11:11:02;11.02;;;2.20;;
51636;SDS011;37713;53.254;6.460;2023-07-29T11:13:34;8.45;;;2.15;;
51636;SDS011;37713;53.254;6.460;2023-07-29T11:16:01;16.45;;;2.70;;
51636;SDS011;37713;53.254;6.460;2023-07-29T11:18:31;14.77;;;2.90;;
51636;SDS011;37713;53.254;6.460;2023-07-29T11:20:59;12.55;;;2.60;;
51636;SDS011;37713;53.254;6.460;2023-07-29T11:23:30;10.77;;;1.67;;
51636;SDS011;37713;53.254;6.460;2023-07-29T11:26:00;4.72;;;1.40;;
51636;SDS011;37713;53.254;6.460;2023-07-29T11:28:27;6.70;;;1.90;;
51636;SDS011;37713;53.254;6.460;2023-07-29T11:30:57;10.40;;;2.10;;
51636;SDS011;37713;53.254;6.460;2023-07-29T11:33:26;23.23;;;15.75;;
51636;SDS011;37713;53.254;6.460;2023-07-29T11:35:53;7.97;;;3.97;;
51636;SDS011;37713;53.254;6.460;2023-07-29T11:38:20;10.43;;;2.63;;
51636;SDS011;37713;53.254;6.460;2023-07-29T11:40:54;7.72;;;2.50;;
51636;SDS011;37713;53.254;6.460;2023-07-29T11:43:21;10.02;;;2.60;;
51636;SDS011;37713;53.254;6.460;2023-07-29T11:45:46;8.18;;;2.38;;
51636;SDS011;37713;53.254;6.460;2023-07-29T11:48:12;7.60;;;2.30;;
51636;SDS011;37713;53.254;6.460;2023-07-29T11:50:38;12.48;;;4.53;;
51636;SDS011;37713;53.254;6.460;2023-07-29T11:53:04;11.13;;;3.47;;
51636;SDS011;37713;53.254;6.460;2023-07-29T11:55:30;5.57;;;1.90;;
51636;SDS011;37713;53.254;6.460;2023-07-29T11:57:58;5.88;;;1.92;;
51636;SDS011;37713;53.254;6.460;2023-07-29T12:00:26;12.88;;;2.50;;
51636;SDS011;37713;53.254;6.460;2023-07-29T12:02:52;5.10;;;2.08;;
51636;SDS011;37713;53.254;6.460;2023-07-29T12:05:18;8.05;;;2.35;;
51636;SDS011;37713;53.254;6.460;2023-07-29T12:07:47;7.25;;;2.03;;
51636;SDS011;37713;53.254;6.460;2023-07-29T12:10:13;5.35;;;2.10;;
51636;SDS011;37713;53.254;6.460;2023-07-29T12:12:47;8.68;;;2.10;;
51636;SDS011;37713;53.254;6.460;2023-07-29T12:15:13;5.60;;;2.40;;
51636;SDS011;37713;53.254;6.460;2023-07-29T12:17:47;6.22;;;2.38;;
51636;SDS011;37713;53.254;6.460;2023-07-29T12:20:13;7.07;;;2.10;;
51636;SDS011;37713;53.254;6.460;2023-07-29T12:22:39;3.65;;;1.80;;
51636;SDS011;37713;53.254;6.460;2023-07-29T12:25:05;4.78;;;1.98;;
51636;SDS011;37713;53.254;6.460;2023-07-29T12:27:32;5.28;;;2.10;;
51636;SDS011;37713;53.254;6.460;2023-07-29T12:29:58;4.22;;;2.03;;
51636;SDS011;37713;53.254;6.460;2023-07-29T12:32:29;3.65;;;1.50;;
51636;SDS011;37713;53.254;6.460;2023-07-29T12:34:54;7.63;;;2.17;;
51636;SDS011;37713;53.254;6.460;2023-07-29T12:37:20;5.70;;;1.75;;
51636;SDS011;37713;53.254;6.460;2023-07-29T12:39:57;8.18;;;1.88;;
51636;SDS011;37713;53.254;6.460;2023-07-29T12:42:22;11.05;;;2.13;;
51636;SDS011;37713;53.254;6.460;2023-07-29T12:44:48;4.35;;;2.00;;
51636;SDS011;37713;53.254;6.460;2023-07-29T12:47:14;6.32;;;1.95;;
51636;SDS011;37713;53.254;6.460;2023-07-29T12:49:40;4.55;;;2.28;;
51636;SDS011;37713;53.254;6.460;2023-07-29T12:52:06;14.88;;;8.68;;
51636;SDS011;37713;53.254;6.460;2023-07-29T12:54:31;6.90;;;2.42;;
51636;SDS011;37713;53.254;6.460;2023-07-29T12:56:57;8.00;;;2.15;;
51636;SDS011;37713;53.254;6.460;2023-07-29T12:59:23;5.65;;;1.83;;
51636;SDS011;37713;53.254;6.460;2023-07-29T13:01:49;6.78;;;2.03;;
51636;SDS011;37713;53.254;6.460;2023-07-29T13:04:15;7.97;;;2.08;;
51636;SDS011;37713;53.254;6.460;2023-07-29T13:06:41;6.05;;;2.03;;
51636;SDS011;37713;53.254;6.460;2023-07-29T13:09:06;8.98;;;2.08;;
51636;SDS011;37713;53.254;6.460;2023-07-29T13:11:32;6.07;;;1.98;;
51636;SDS011;37713;53.254;6.460;2023-07-29T13:13:58;5.90;;;2.08;;
51636;SDS011;37713;53.254;6.460;2023-07-29T13:16:25;7.78;;;2.10;;
51636;SDS011;37713;53.254;6.460;2023-07-29T13:18:51;9.38;;;1.95;;
51636;SDS011;37713;53.254;6.460;2023-07-29T13:21:17;5.43;;;1.77;;
51636;SDS011;37713;53.254;6.460;2023-07-29T13:23:43;7.22;;;2.20;;
51636;SDS011;37713;53.254;6.460;2023-07-29T13:26:09;7.45;;;2.00;;
51636;SDS011;37713;53.254;6.460;2023-07-29T13:28:36;7.00;;;2.03;;
51636;SDS011;37713;53.254;6.460;2023-07-29T13:31:02;6.47;;;2.42;;
51636;SDS011;37713;53.254;6.460;2023-07-29T13:33:28;9.85;;;2.65;;
51636;SDS011;37713;53.254;6.460;2023-07-29T13:35:58;9.38;;;2.42;;
51636;SDS011;37713;53.254;6.460;2023-07-29T13:38:25;9.23;;;2.00;;
51636;SDS011;37713;53.254;6.460;2023-07-29T13:40:50;5.57;;;2.28;;
51636;SDS011;37713;53.254;6.460;2023-07-29T13:43:16;6.55;;;2.03;;
51636;SDS011;37713;53.254;6.460;2023-07-29T13:45:43;21.13;;;12.77;;
51636;SDS011;37713;53.254;6.460;2023-07-29T13:48:08;10.45;;;2.35;;
51636;SDS011;37713;53.254;6.460;2023-07-29T13:50:34;7.45;;;2.20;;
51636;SDS011;37713;53.254;6.460;2023-07-29T13:53:00;8.48;;;2.60;;
51636;SDS011;37713;53.254;6.460;2023-07-29T13:55:26;6.47;;;2.13;;
51636;SDS011;37713;53.254;6.460;2023-07-29T13:57:52;7.88;;;2.15;;
51636;SDS011;37713;53.254;6.460;2023-07-29T14:00:19;9.18;;;2.22;;
51636;SDS011;37713;53.254;6.460;2023-07-29T14:02:45;6.13;;;1.95;;
51636;SDS011;37713;53.254;6.460;2023-07-29T14:05:11;7.78;;;2.15;;
51636;SDS011;37713;53.254;6.460;2023-07-29T14:07:37;6.03;;;1.90;;
51636;SDS011;37713;53.254;6.460;2023-07-29T14:10:03;8.90;;;2.25;;
51636;SDS011;37713;53.254;6.460;2023-07-29T14:12:29;8.75;;;2.30;;
51636;SDS011;37713;53.254;6.460;2023-07-29T14:14:55;7.40;;;2.00;;
51636;SDS011;37713;53.254;6.460;2023-07-29T14:17:21;9.30;;;2.35;;
51636;SDS011;37713;53.254;6.460;2023-07-29T14:19:47;6.38;;;1.90;;
51636;SDS011;37713;53.254;6.460;2023-07-29T14:22:12;7.50;;;2.05;;
51636;SDS011;37713;53.254;6.460;2023-07-29T14:24:38;13.93;;;7.00;;
51636;SDS011;37713;53.254;6.460;2023-07-29T14:27:04;8.35;;;2.60;;
51636;SDS011;37713;53.254;6.460;2023-07-29T14:29:30;6.97;;;2.10;;
51636;SDS011;37713;53.254;6.460;2023-07-29T14:31:56;7.05;;;2.20;;
51636;SDS011;37713;53.254;6.460;2023-07-29T14:34:22;7.75;;;2.42;;
51636;SDS011;37713;53.254;6.460;2023-07-29T14:36:48;9.90;;;2.15;;
51636;SDS011;37713;53.254;6.460;2023-07-29T14:39:13;6.18;;;2.20;;
51636;SDS011;37713;53.254;6.460;2023-07-29T14:41:39;14.88;;;6.53;;
51636;SDS011;37713;53.254;6.460;2023-07-29T14:44:05;7.50;;;2.40;;
51636;SDS011;37713;53.254;6.460;2023-07-29T14:46:31;10.57;;;2.50;;
51636;SDS011;37713;53.254;6.460;2023-07-29T14:48:57;5.40;;;2.08;;
51636;SDS011;37713;53.254;6.460;2023-07-29T14:51:23;5.55;;;1.90;;
51636;SDS011;37713;53.254;6.460;2023-07-29T14:53:49;8.20;;;2.13;;